Time;durP1;ratioP1;P1;durP2;ratioP2;P2;SDS_P1;SDS_P2;PMS_P1;PMS_P2;Temp;Humidity;BMP_temperature;BMP_pressure;BME280_temperature;BME280_humidity;BME280_pressure;Samples;Min_cycle;Max_cycle;Signal;HPM_P1;HPM_P2
2022/12/28 00:02:37;;;;;;;;;55.00;44.00;;;;;8.59;81.07;101962.84;146605;602;47012;-70
2022/12/28 00:05:33;;;;;;;;;46.75;37.50;;;;;8.62;81.33;101963.06;146601;696;46016;-70
2022/12/28 00:08:25;;;;;;;;;48.25;38.50;;;;;8.68;81.32;101971.31;146605;581;46020;-71
2022/12/28 00:11:28;;;;;;;;;43.75;34.75;;;;;8.73;80.73;101982.03;146602;676;46016;-69
2022/12/28 00:14:32;;;;;;;;;42.00;34.75;;;;;8.80;80.68;101971.38;146607;601;46011;-70
2022/12/28 00:17:24;;;;;;;;;39.00;33.00;;;;;8.89;80.96;101979.84;146600;608;46016;-71
2022/12/28 00:20:20;;;;;;;;;39.50;31.75;;;;;8.96;81.04;101976.06;146601;572;46021;-72
2022/12/28 00:23:15;;;;;;;;;37.00;30.25;;;;;9.02;81.71;101977.44;146605;666;46920;-73
2022/12/28 00:26:19;;;;;;;;;38.50;26.00;;;;;9.10;81.30;101983.22;146605;571;46030;-73
2022/12/28 00:29:27;;;;;;;;;;;;;;;;;;;;;
2022/12/28 00:32:26;;;;;;;;;29.00;25.25;;;;;9.23;81.94;101983.38;146605;678;46020;-69
2022/12/28 00:35:22;;;;;;;;;21.75;20.50;;;;;9.31;82.37;101986.53;146603;581;46013;-69
2022/12/28 00:38:20;;;;;;;;;27.75;23.75;;;;;9.41;81.59;101995.91;146607;588;46010;-68
2022/12/28 00:41:27;;;;;;;;;24.75;21.00;;;;;9.48;81.67;101993.91;146604;576;46012;-68
2022/12/28 00:44:21;;;;;;;;;22.25;21.50;;;;;9.57;81.67;101998.88;146604;691;46010;-68
2022/12/28 00:47:17;;;;;;;;;25.75;23.00;;;;;9.62;82.06;101997.50;146601;573;46016;-68
2022/12/28 00:50:24;;;;;;;;;26.50;24.00;;;;;9.69;81.49;102010.16;146605;613;46020;-69
2022/12/28 00:53:34;;;;;;;;;28.50;23.75;;;;;6.84;80.21;101489.56;146604;571;46016;-68
2022/12/28 00:56:45;;;;;;;;;;;;;;;;;;;;;
2022/12/28 00:59:53;;;;;;;;;21.50;20.00;;;;;6.91;80.07;101489.25;146602;593;46012;-70
2022/12/28 01:02:54;;;;;;;;;27.75;22.00;;;;;9.94;81.29;102007.72;146607;602;46010;-69
2022/12/28 01:05:55;;;;;;;;;18.00;17.50;;;;;10.01;80.52;102009.06;146600;580;46014;-69
2022/12/28 01:08:48;;;;;;;;;27.50;22.00;;;;;10.04;80.96;102004.09;146604;563;46020;-71
2022/12/28 01:11:43;;;;;;;;;25.75;21.00;;;;;10.07;80.60;102008.63;146601;581;47012;-70
2022/12/28 01:14:58;;;;;;;;;24.00;20.75;;;;;10.13;80.18;102014.25;146608;579;46010;-70
2022/12/28 01:18:00;;;;;;;;;21.00;18.75;;;;;10.19;80.59;102004.34;146603;701;46035;-72
2022/12/28 01:20:52;;;;;;;;;20.00;18.75;;;;;10.22;80.63;102008.81;146605;608;46011;-73
2022/12/28 01:24:03;;;;;;;;;22.00;20.25;;;;;10.24;80.99;102009.84;146603;585;46026;-73
2022/12/28 01:27:25;;;;;;;;;;;;;;;;;;;;;
2022/12/28 01:30:36;;;;;;;;;;;;;;;;;;;;;
2022/12/28 01:33:33;;;;;;;;;24.00;21.25;;;;;10.35;80.98;102006.37;146626;569;45020;-70
2022/12/28 01:36:31;;;;;;;;;28.25;24.00;;;;;10.37;81.33;102007.38;146624;566;45017;-71
2022/12/28 01:39:25;;;;;;;;;63.25;45.00;;;;;10.44;81.22;102008.75;146627;586;45020;-74
2022/12/28 01:42:34;;;;;;;;;70.75;53.75;;;;;10.46;80.42;102000.25;146621;684;45920;-74
2022/12/28 01:45:38;;;;;;;;;61.50;47.25;;;;;7.38;79.76;101462.72;146627;563;46020;-70
2022/12/28 01:48:34;;;;;;;;;79.67;70.67;;;;;10.52;80.45;102005.00;146626;584;45920;-69
2022/12/28 01:51:31;;;;;;;;;87.67;78.67;;;;;10.51;80.24;102001.50;146627;574;46010;-68
2022/12/28 01:54:49;;;;;;;;;98.67;86.00;;;;;10.54;79.02;102006.03;146630;573;45920;-68
2022/12/28 01:58:21;;;;;;;;;101.67;89.67;;;;;8.73;77.70;101693.31;146635;564;46010;-69
2022/12/28 02:01:36;;;;;;;;;77.33;65.67;;;;;10.52;78.94;102013.66;146631;671;45016;-68
2022/12/28 02:04:34;;;;;;;;;78.33;63.00;;;;;10.50;78.54;102017.88;146627;591;45021;-67
2022/12/28 02:08:03;;;;;;;;;74.75;62.75;;;;;10.50;77.79;102006.56;146625;588;46920;-69
2022/12/28 02:11:00;;;;;;;;;69.75;54.25;;;;;10.50;78.54;102009.16;146626;585;46012;-70
2022/12/28 02:13:58;;;;;;;;;71.50;56.50;;;;;10.47;78.42;102012.47;146626;604;45012;-68
2022/12/28 02:17:00;;;;;;;;;71.50;57.75;;;;;10.48;78.67;102003.88;146628;581;45010;-68
2022/12/28 02:19:59;;;;;;;;;74.50;55.75;;;;;10.51;78.68;102004.09;146624;616;45035;-68
2022/12/28 02:23:35;;;;;;;;;74.25;59.25;;;;;10.52;77.37;102003.28;146624;588;45020;-68
2022/12/28 02:27:04;;;;;;;;;72.00;56.00;;;;;10.56;77.31;101999.22;146612;681;46017;-68
2022/12/28 02:30:19;;;;;;;;;70.50;55.25;;;;;10.57;77.81;101999.34;146610;607;46022;-68
2022/12/28 02:33:27;;;;;;;;;67.75;51.75;;;;;10.60;78.11;102009.94;146607;644;46016;-69
2022/12/28 02:36:43;;;;;;;;;68.75;51.75;;;;;10.62;78.89;102002.25;146612;603;46021;-73
2022/12/28 02:39:50;;;;;;;;;68.75;52.75;;;;;10.62;78.27;101991.88;146609;569;46012;-73
2022/12/28 02:42:48;;;;;;;;;61.50;48.25;;;;;10.59;79.29;101982.22;146609;590;46021;-71
2022/12/28 02:53:39;;;;;;;;;65.25;48.50;;;;;7.61;77.86;101470.53;146609;656;46016;-73
2022/12/28 02:56:56;;;;;;;;;77.50;60.00;;;;;10.59;79.63;101997.78;146611;596;46021;-70
2022/12/28 03:00:24;;;;;;;;;73.50;58.00;;;;;10.62;78.98;101999.66;146606;632;46014;-71
2022/12/28 03:03:55;;;;;;;;;73.25;59.00;;;;;10.64;78.99;101999.00;146615;653;46010;-74
2022/12/28 03:11:15;;;;;;;;;67.25;50.50;;;;;10.67;77.93;102003.50;146615;605;46020;-71
2022/12/28 03:14:22;;;;;;;;;69.75;52.50;;;;;10.70;nan;102008.91;146608;571;46016;-69
2022/12/28 03:34:08;;;;;;;;;64.00;50.00;;;;;10.74;77.42;102010.91;146605;627;46919;-70
2022/12/28 03:37:17;;;;;;;;;62.00;47.00;;;;;10.76;77.90;102014.53;146607;604;46010;-69
2022/12/28 03:40:48;;;;;;;;;55.50;43.50;;;;;10.75;76.97;102010.16;146602;578;46016;-70
2022/12/28 03:44:04;;;;;;;;;56.50;43.75;;;;;10.73;77.57;102016.91;146606;569;46020;-68
2022/12/28 03:47:23;;;;;;;;;57.00;44.00;;;;;10.73;77.35;102021.19;146595;694;46035;-67
2022/12/28 03:50:22;;;;;;;;;57.25;44.00;;;;;10.71;77.44;102022.78;146607;573;46010;-71
2022/12/28 03:53:30;;;;;;;;;53.75;42.00;;;;;10.69;77.67;102020.09;146602;681;47014;-72
2022/12/28 03:56:26;;;;;;;;;52.75;40.75;;;;;10.68;77.61;102023.44;146605;577;47010;-71
2022/12/28 03:59:22;;;;;;;;;49.25;39.75;;;;;10.63;77.88;102017.94;146603;599;46016;-72
2022/12/28 04:02:27;;;;;;;;;43.25;35.00;;;;;10.63;78.00;102015.34;146603;620;46020;-72
2022/12/28 04:05:36;;;;;;;;;;;;;;;;;;;;;
2022/12/28 04:08:31;;;;;;;;;42.00;33.50;;;;;10.63;78.28;102017.06;146604;604;46020;-71
2022/12/28 04:11:24;;;;;;;;;47.25;37.75;;;;;10.63;78.93;102023.13;146602;569;47013;-71
2022/12/28 04:14:38;;;;;;;;;;;;;;;;;;;;;
2022/12/28 04:17:36;;;;;;;;;49.50;37.75;;;;;10.65;78.38;102028.41;146601;655;46016;-73
2022/12/28 04:20:49;;;;;;;;;48.25;38.25;;;;;9.22;78.48;101821.13;146603;576;47010;-75
2022/12/28 04:23:44;;;;;;;;;49.50;36.75;;;;;10.63;79.07;102028.31;146604;619;46012;-75
2022/12/28 04:26:55;;;;;;;;;48.50;38.50;;;;;10.64;78.94;102037.00;146614;606;46010;-75
2022/12/28 04:29:50;;;;;;;;;49.50;37.75;;;;;10.70;78.82;102046.91;146610;621;46016;-75
2022/12/28 04:32:48;;;;;;;;;47.50;38.00;;;;;10.76;78.81;102039.59;146615;625;46010;-75
2022/12/28 04:35:48;;;;;;;;;39.75;33.50;;;;;10.78;78.66;102045.78;146611;582;45918;-75
2022/12/28 04:38:54;;;;;;;;;47.00;35.50;;;;;10.82;78.25;102040.91;146615;605;46020;-69
2022/12/28 04:41:49;;;;;;;;;45.00;33.25;;;;;10.85;78.57;102041.13;146607;613;46016;-69
2022/12/28 04:44:47;;;;;;;;;40.75;33.75;;;;;10.86;78.44;102047.22;146614;626;46020;-69
2022/12/28 04:47:39;;;;;;;;;37.25;33.25;;;;;10.86;78.53;102047.22;146610;569;46013;-70
2022/12/28 04:50:41;;;;;;;;;42.75;35.25;;;;;10.84;78.70;102054.91;146612;610;46020;-70
2022/12/28 04:53:33;;;;;;;;;36.25;33.25;;;;;10.80;78.96;102046.78;146607;728;47012;-70
2022/12/28 04:56:36;;;;;;;;;46.25;36.75;;;;;10.78;78.59;102054.47;146616;594;45021;-74
2022/12/28 04:59:27;;;;;;;;;45.00;35.50;;;;;10.79;79.04;102052.78;146611;628;46012;-72
2022/12/28 05:02:25;;;;;;;;;46.00;37.50;;;;;10.77;79.31;102041.38;146609;575;46021;-71
2022/12/28 05:05:32;;;;;;;;;43.25;32.75;;;;;10.80;79.13;102039.87;146610;614;45918;-70
2022/12/28 05:08:30;;;;;;;;;42.25;34.75;;;;;10.82;79.03;102045.22;146614;705;46020;-70
2022/12/28 05:11:28;;;;;;;;;40.50;29.75;;;;;10.81;79.29;102039.13;146609;605;46013;-70
2022/12/28 05:14:23;;;;;;;;;42.50;33.75;;;;;10.81;79.33;102041.72;146612;563;47010;-70
2022/12/28 05:17:16;;;;;;;;;47.00;36.75;;;;;10.82;79.45;102050.41;146609;627;46013;-71
2022/12/28 05:20:09;;;;;;;;;49.00;39.75;;;;;10.76;79.53;102037.88;146612;618;45918;-72
2022/12/28 05:23:01;;;;;;;;;45.00;36.00;;;;;10.86;79.32;102053.31;146608;636;46918;-71
2022/12/28 05:26:13;;;;;;;;;45.00;35.75;;;;;10.91;78.75;102060.53;146614;616;45024;-71
2022/12/28 05:29:05;;;;;;;;;45.75;37.75;;;;;10.92;79.27;102055.44;146601;571;46016;-69
2022/12/28 05:32:01;;;;;;;;;47.25;36.25;;;;;10.89;79.11;102065.59;146604;648;46048;-69
2022/12/28 05:35:06;;;;;;;;;52.25;39.25;;;;;10.85;78.63;102064.50;146603;815;46012;-69
2022/12/28 05:38:03;;;;;;;;;44.75;37.25;;;;;10.86;78.92;102067.97;146607;579;46020;-70
2022/12/28 05:40:56;;;;;;;;;51.75;39.50;;;;;10.86;79.06;102076.66;146600;620;46017;-70
2022/12/28 05:43:49;;;;;;;;;46.25;37.50;;;;;10.83;78.89;102071.25;146605;574;46032;-70
2022/12/28 05:46:46;;;;;;;;;49.50;38.50;;;;;10.80;79.20;102081.41;146602;592;46014;-70
2022/12/28 05:49:48;;;;;;;;;50.50;40.00;;;;;10.82;78.72;102094.50;146607;633;47010;-70
2022/12/28 05:52:52;;;;;;;;;44.00;37.00;;;;;10.80;79.27;102089.19;146602;591;46032;-71
2022/12/28 05:55:47;;;;;;;;;38.50;33.00;;;;;10.82;79.58;102086.72;146605;784;45021;-71
2022/12/28 05:58:41;;;;;;;;;41.25;32.50;;;;;10.82;79.34;102095.41;146600;596;46016;-70
2022/12/28 06:02:07;;;;;;;;;43.50;34.75;;;;;10.82;78.84;102089.31;146605;587;46010;-69
2022/12/28 06:05:04;;;;;;;;;48.00;39.50;;;;;10.80;80.36;102093.47;146602;599;46016;-70
2022/12/28 06:08:00;;;;;;;;;52.00;40.00;;;;;10.73;79.34;102086.97;146606;634;46020;-71
2022/12/28 06:11:02;;;;;;;;;49.00;39.25;;;;;10.72;79.64;102089.47;146600;625;47014;-70
2022/12/28 06:14:08;;;;;;;;;48.25;36.50;;;;;10.74;79.92;102096.53;146608;578;46010;-71
2022/12/28 06:17:17;;;;;;;;;51.75;40.00;;;;;10.76;79.21;102087.19;146599;576;47016;-70
2022/12/28 06:20:23;;;;;;;;;47.50;37.50;;;;;7.50;79.14;101511.78;146607;611;46010;-70
2022/12/28 06:23:28;;;;;;;;;48.00;38.25;;;;;10.80;79.96;102094.37;146606;585;46012;-71
2022/12/28 06:26:31;;;;;;;;;48.00;38.25;;;;;10.86;79.91;102096.53;146605;585;46010;-71
2022/12/28 06:29:34;;;;;;;;;51.25;41.50;;;;;8.03;78.81;101595.87;146603;669;47012;-69
2022/12/28 06:32:34;;;;;;;;;49.00;39.25;;;;;10.89;79.30;102096.75;146605;677;46020;-68
2022/12/28 06:35:31;;;;;;;;;55.75;41.75;;;;;10.91;79.54;102100.34;146602;570;46012;-71
2022/12/28 06:38:33;;;;;;;;;;;;;;;;;;;;;
2022/12/28 06:41:34;;;;;;;;;48.50;37.50;;;;;10.93;79.46;102103.94;146599;632;46016;-69
2022/12/28 06:44:40;;;;;;;;;47.75;35.50;;;;;10.97;78.94;102110.28;146602;628;47010;-69
2022/12/28 06:47:45;;;;;;;;;48.75;36.25;;;;;8.22;78.08;101626.56;146597;654;47014;-74
2022/12/28 06:50:39;;;;;;;;;41.75;32.00;;;;;11.02;79.37;102107.19;146605;596;46049;-69
2022/12/28 06:53:44;;;;;;;;;32.00;29.00;;;;;11.19;80.34;102111.00;146602;569;46013;-69
2022/12/28 06:56:49;;;;;;;;;31.00;26.50;;;;;11.74;82.30;102111.34;146600;654;47010;-70
2022/12/28 06:59:44;;;;;;;;;34.75;29.75;;;;;12.44;80.86;102117.81;146602;581;47013;-68
2022/12/28 07:02:40;;;;;;;;;38.75;33.00;;;;;13.12;78.58;102113.56;146604;594;46020;-67
2022/12/28 07:05:35;;;;;;;;;63.00;47.25;;;;;13.89;74.90;102117.38;146603;578;46012;-67
2022/12/28 07:08:29;;;;;;;;;50.00;40.50;;;;;14.37;70.50;102128.94;146603;590;46021;-67
2022/12/28 07:11:26;;;;;;;;;54.50;41.25;;;;;14.49;68.20;102121.81;146603;583;46016;-66
2022/12/28 07:14:22;;;;;;;;;53.75;43.25;;;;;14.43;66.77;102121.47;146605;617;46010;-68
2022/12/28 07:17:14;;;;;;;;;48.50;37.75;;;;;14.22;67.10;102128.94;146601;751;46017;-67
2022/12/28 07:20:20;;;;;;;;;61.50;47.75;;;;;11.34;68.21;101646.38;146606;641;46020;-67
2022/12/28 07:23:28;;;;;;;;;;;;;;;;;;;;;
2022/12/28 07:26:41;;;;;;;;;;;;;;;;;;;;;
2022/12/28 07:29:37;;;;;;;;;50.00;40.50;;;;;14.76;70.15;102140.78;146611;570;46016;-67
2022/12/28 07:32:35;;;;;;;;;48.50;37.25;;;;;15.14;68.03;102139.41;146609;604;47010;-68
2022/12/28 07:35:33;;;;;;;;;47.75;38.00;;;;;15.57;66.11;102134.78;146606;690;46016;-67
2022/12/28 07:38:30;;;;;;;;;48.25;36.75;;;;;15.89;65.61;102144.41;146611;564;46021;-67
2022/12/28 07:41:29;;;;;;;;;48.00;38.25;;;;;16.17;63.84;102131.00;146608;773;46920;-67
2022/12/28 07:44:32;;;;;;;;;48.75;37.50;;;;;16.31;62.64;102123.84;146614;571;46010;-67
2022/12/28 07:47:27;;;;;;;;;46.50;37.25;;;;;16.42;62.07;102129.63;146607;599;46016;-67
2022/12/28 07:50:23;;;;;;;;;45.00;34.50;;;;;16.51;62.57;102135.31;146608;770;46031;-66
2022/12/28 07:53:15;;;;;;;;;48.50;37.00;;;;;16.63;62.02;102141.19;146605;595;46017;-67
2022/12/28 07:56:14;;;;;;;;;41.75;34.75;;;;;16.71;61.56;102140.62;146610;609;47012;-67
2022/12/28 07:59:19;;;;;;;;;;;;;;;;;;;;;
2022/12/28 08:02:23;;;;;;;;;35.25;30.50;;;;;16.81;61.97;102145.53;146611;566;46030;-67
2022/12/28 08:05:22;;;;;;;;;46.00;35.25;;;;;16.85;62.36;102147.47;146604;600;47014;-68
2022/12/28 08:08:29;;;;;;;;;45.75;35.75;;;;;16.89;61.85;102143.28;146611;564;47012;-67
2022/12/28 08:11:30;;;;;;;;;44.50;35.50;;;;;16.89;62.20;102146.81;146609;593;46920;-67
2022/12/28 08:14:43;;;;;;;;;40.50;32.75;;;;;16.89;63.29;102144.19;146611;574;46021;-68
2022/12/28 08:17:43;;;;;;;;;36.50;32.25;;;;;16.79;63.43;102147.16;146607;563;47014;-67
2022/12/28 08:20:40;;;;;;;;;39.75;33.25;;;;;16.75;63.66;102150.44;146612;571;46020;-67
2022/12/28 08:23:33;;;;;;;;;44.00;32.00;;;;;16.80;62.80;102135.88;146609;612;46017;-67
2022/12/28 08:26:34;;;;;;;;;41.00;32.00;;;;;16.89;63.35;102141.56;146612;565;47010;-68
2022/12/28 08:29:28;;;;;;;;;54.00;41.00;;;;;16.93;63.54;102148.75;146607;588;46016;-68
2022/12/28 08:32:30;;;;;;;;;59.00;45.75;;;;;16.94;63.19;102142.66;146611;564;46020;-67
2022/12/28 08:35:22;;;;;;;;;52.25;42.75;;;;;16.93;63.77;102148.75;146610;605;46033;-67
2022/12/28 08:38:28;;;;;;;;;;;;;;;;;;;;;
2022/12/28 08:41:33;;;;;;;;;51.50;42.00;;;;;17.00;62.93;102152.53;146607;616;46014;-66
2022/12/28 08:44:27;;;;;;;;;51.25;40.75;;;;;16.84;62.75;102137.81;146613;706;46011;-68
2022/12/28 08:47:19;;;;;;;;;79.00;69.33;;;;;16.77;63.66;102144.47;146607;628;46016;-67
2022/12/28 08:50:30;;;;;;;;;55.50;42.00;;;;;14.32;63.16;101699.03;146610;609;47010;-67
2022/12/28 08:53:26;;;;;;;;;54.00;42.25;;;;;16.96;63.49;102151.50;146606;715;47013;-68
2022/12/28 08:56:27;;;;;;;;;50.00;40.00;;;;;17.03;64.40;102150.97;146610;566;46020;-67
2022/12/28 08:59:45;;;;;;;;;44.50;35.75;;;;;14.49;64.15;101696.41;146606;593;46921;-67
2022/12/28 09:02:41;;;;;;;;;55.25;43.50;;;;;17.17;62.60;102159.50;146610;622;47010;-68
2022/12/28 09:05:52;;;;;;;;;54.00;42.75;;;;;17.28;63.69;102158.25;146605;652;47014;-67
2022/12/28 09:08:54;;;;;;;;;55.75;44.00;;;;;17.47;62.83;102156.50;146612;576;46010;-67
2022/12/28 09:11:53;;;;;;;;;50.50;41.00;;;;;17.58;60.71;102154.38;146608;657;46019;-66
2022/12/28 09:14:57;;;;;;;;;48.00;38.75;;;;;17.47;60.70;102148.63;146611;683;47010;-67
2022/12/28 09:17:49;;;;;;;;;50.25;38.75;;;;;17.36;60.70;102150.78;146609;696;46920;-66
2022/12/28 09:20:53;;;;;;;;;47.50;38.00;;;;;17.42;61.32;102145.81;146615;604;46010;-68
2022/12/28 09:23:50;;;;;;;;;32.75;29.00;;;;;17.61;61.91;102144.03;146607;569;46014;-67
2022/12/28 09:27:01;;;;;;;;;29.75;26.50;;;;;15.20;62.73;101677.28;146608;563;47020;-66
2022/12/28 09:29:55;;;;;;;;;54.50;43.75;;;;;17.97;59.48;102123.78;146601;614;46017;-69
2022/12/28 09:33:57;;;;;;;;;50.25;36.50;;;;;17.93;59.24;102125.37;146602;569;46010;-67
2022/12/28 09:36:06;;;;;;;;;33.50;30.75;;;;;17.75;60.60;102114.03;146604;616;46016;-67
2022/12/28 09:39:00;;;;;;;;;28.25;27.50;;;;;17.19;61.07;102016.28;146606;575;47010;-67
2022/12/28 09:42:33;;;;;;;;;;;;;;;;;;;;;
2022/12/28 09:45:34;;;;;;;;;29.50;24.25;;;;;17.70;61.64;102099.84;146604;618;46033;-66
2022/12/28 09:48:30;;;;;;;;;25.75;20.00;;;;;17.74;61.98;102102.66;146603;665;46012;-67
2022/12/28 09:51:28;;;;;;;;;21.00;18.25;;;;;17.76;60.72;102092.25;146604;618;46021;-67
2022/12/28 09:54:24;;;;;;;;;31.00;22.50;;;;;17.71;61.47;102094.66;146593;711;48012;-66
2022/12/28 09:57:32;;;;;;;;;31.00;28.00;;;;;17.73;61.89;102086.88;146607;593;46010;-67
2022/12/28 10:00:44;;;;;;;;;22.00;18.50;;;;;17.71;61.49;102096.38;146601;588;46016;-67
2022/12/28 10:03:56;;;;;;;;;20.75;20.25;;;;;15.01;62.63;101652.94;146602;602;46020;-67
2022/12/28 10:06:51;;;;;;;;;24.00;22.00;;;;;17.31;62.69;102098.09;146604;629;46034;-67
2022/12/28 10:09:43;;;;;;;;;24.75;23.00;;;;;17.18;62.99;102081.75;146605;577;46020;-68
2022/12/28 10:12:40;;;;;;;;;27.00;22.75;;;;;17.06;62.56;102085.59;146602;582;46920;-67
2022/12/28 10:15:41;;;;;;;;;23.50;20.25;;;;;16.57;63.51;102037.81;146603;563;46010;-67
2022/12/28 10:18:52;;;;;;;;;34.25;30.00;;;;;16.61;64.35;102087.81;146601;598;46012;-67
2022/12/28 10:21:56;;;;;;;;;32.00;27.50;;;;;16.46;65.32;102079.22;146606;683;46022;-66
2022/12/28 10:24:54;;;;;;;;;23.50;20.50;;;;;16.42;65.97;102082.50;146601;585;46016;-66
2022/12/28 10:27:52;;;;;;;;;27.00;24.50;;;;;16.39;66.37;102078.03;146606;706;47010;-67
2022/12/28 10:31:15;;;;;;;;;24.50;22.00;;;;;16.41;66.82;102080.69;146600;579;47014;-67
2022/12/28 10:34:23;;;;;;;;;26.00;25.00;;;;;16.46;67.08;102078.31;146599;638;47012;-66
2022/12/28 10:37:22;;;;;;;;;24.50;18.25;;;;;16.51;66.61;102072.50;146602;593;46033;-67
2022/12/28 10:40:35;;;;;;;;;26.50;25.00;;;;;16.55;66.41;102078.78;146607;579;47010;-66
2022/12/28 10:43:38;;;;;;;;;30.00;27.50;;;;;16.53;65.99;102064.69;146600;602;46016;-66
2022/12/28 10:46:43;;;;;;;;;23.75;21.00;;;;;16.52;66.28;102057.66;146604;623;46020;-66
2022/12/28 10:49:40;;;;;;;;;24.25;21.00;;;;;16.48;64.34;102053.09;146602;571;46015;-67
2022/12/28 10:53:02;;;;;;;;;25.00;22.50;;;;;16.42;65.52;102056.34;146604;681;47010;-68
2022/12/28 10:56:26;;;;;;;;;29.00;27.00;;;;;13.81;65.77;101592.94;146599;636;47012;-67
2022/12/28 10:59:39;;;;;;;;;;;;;;;;;;;;;
2022/12/28 11:02:37;;;;;;;;;23.25;19.75;;;;;16.57;64.23;102045.69;146599;604;46016;-66
2022/12/28 11:05:47;;;;;;;;;25.25;22.00;;;;;16.60;63.99;102048.44;146604;578;46010;-64
2022/12/28 11:09:14;;;;;;;;;22.25;19.50;;;;;16.74;64.82;102041.25;146602;605;46016;-64
2022/12/28 11:12:27;;;;;;;;;15.75;15.25;;;;;16.98;63.58;102042.44;146603;660;46021;-65
2022/12/28 11:15:39;;;;;;;;;22.75;20.00;;;;;17.08;61.61;102034.16;146601;603;46012;-67
2022/12/28 11:18:33;;;;;;;;;19.50;17.25;;;;;17.16;61.11;102030.97;146604;586;47012;-66
2022/12/28 11:21:29;;;;;;;;;19.50;17.00;;;;;17.23;61.98;102030.44;146599;590;47012;-65
2022/12/28 11:24:31;;;;;;;;;22.00;18.00;;;;;17.31;61.29;102026.44;146604;648;46020;-67
2022/12/28 11:27:31;;;;;;;;;22.50;19.75;;;;;17.40;62.61;102021.59;146604;656;47012;-67
2022/12/28 11:30:26;;;;;;;;;19.50;17.75;;;;;17.57;59.91;102029.28;146604;632;46020;-66
2022/12/28 11:33:45;;;;;;;;;23.00;17.75;;;;;15.31;61.25;101602.94;146601;571;46019;-66
2022/12/28 11:36:46;;;;;;;;;19.75;18.00;;;;;17.91;60.31;102021.16;146605;644;46021;-66
2022/12/28 11:39:54;;;;;;;;;20.00;16.50;;;;;18.12;59.93;102024.69;146600;597;47012;-67
2022/12/28 11:43:05;;;;;;;;;23.25;19.50;;;;;18.41;60.00;102019.72;146603;604;47010;-66
2022/12/28 11:46:28;;;;;;;;;20.25;18.25;;;;;18.68;57.40;102015.56;146598;582;46918;-66
2022/12/28 11:49:46;;;;;;;;;;;;;;;;;;;;;
2022/12/28 11:52:53;;;;;;;;;24.75;22.25;;;;;19.12;57.24;102007.59;146601;675;46016;-65
2022/12/28 11:56:13;;;;;;;;;27.00;22.00;;;;;16.97;56.78;101592.59;146603;695;47010;-67
2022/12/28 11:59:27;;;;;;;;;19.25;18.25;;;;;17.07;58.33;101571.19;146599;581;46017;-72
2022/12/28 12:02:44;;;;;;;;;18.25;16.75;;;;;17.34;55.24;101585.25;146606;596;46012;-64
2022/12/28 12:06:03;;;;;;;;;19.25;19.00;;;;;18.56;56.75;101798.78;146599;593;47014;-66
2022/12/28 12:09:04;;;;;;;;;21.00;19.00;;;;;19.94;53.38;101999.09;146602;563;46022;-66
2022/12/28 12:12:26;;;;;;;;;28.25;20.75;;;;;20.10;53.59;101995.25;146603;717;46919;-66
2022/12/28 12:15:24;;;;;;;;;15.75;15.25;;;;;20.28;51.60;101989.69;146603;593;46020;-66
2022/12/28 12:18:59;;;;;;;;;19.50;18.00;;;;;18.06;54.18;101575.63;146602;631;46918;-65
2022/12/28 12:22:20;;;;;;;;;24.75;21.00;;;;;20.43;52.70;101982.22;146605;658;46010;-65
2022/12/28 12:25:42;;;;;;;;;25.50;21.75;;;;;20.39;52.42;101979.47;146603;629;47012;-65
2022/12/28 12:29:02;;;;;;;;;23.75;22.00;;;;;20.23;54.81;101980.72;146603;817;46020;-66
2022/12/28 12:32:31;;;;;;;;;16.25;14.50;;;;;20.18;54.27;101975.28;146600;647;46016;-66
2022/12/28 12:35:58;;;;;;;;;24.50;21.00;;;;;20.14;54.62;101983.06;146601;572;46029;-67
2022/12/28 12:39:45;;;;;;;;;18.00;17.25;;;;;20.10;56.38;101979.44;146603;602;46916;-67
2022/12/28 12:43:20;;;;;;;;;31.50;26.75;;;;;20.16;56.37;101969.09;146601;619;46020;-66
2022/12/28 12:47:07;;;;;;;;;24.00;23.00;;;;;18.28;55.10;101614.00;146597;584;47918;-66
2022/12/28 12:50:48;;;;;;;;;32.75;28.50;;;;;18.07;55.60;101568.66;146605;585;46010;-67
2022/12/28 12:54:13;;;;;;;;;42.00;33.50;;;;;20.55;55.18;101979.09;146603;615;46012;-66
2022/12/28 12:57:48;;;;;;;;;50.25;38.75;;;;;20.53;53.42;101976.44;146605;573;47010;-66
2022/12/28 13:01:33;;;;;;;;;48.25;37.25;;;;;18.12;52.68;101565.34;146598;563;48014;-66
2022/12/28 13:04:41;;;;;;;;;42.50;34.00;;;;;20.35;52.65;101967.94;146604;610;46021;-67
2022/12/28 13:07:55;;;;;;;;;41.75;32.00;;;;;20.12;53.83;101974.22;146602;582;46016;-67
2022/12/28 13:11:06;;;;;;;;;43.75;35.50;;;;;17.68;54.64;101572.53;146601;592;46012;-68
2022/12/28 13:14:11;;;;;;;;;47.25;38.00;;;;;19.82;52.42;101977.62;146597;583;47012;-67
2022/12/28 13:17:42;;;;;;;;;44.25;35.25;;;;;19.38;54.62;101975.25;146605;564;46020;-66
2022/12/28 13:20:42;;;;;;;;;45.50;34.50;;;;;18.87;54.99;101979.50;146600;632;47012;-67
2022/12/28 13:23:50;;;;;;;;;38.00;32.00;;;;;18.43;56.22;101983.91;146604;567;46020;-66
2022/12/28 13:26:46;;;;;;;;;38.00;31.25;;;;;18.07;57.32;101986.88;146601;619;46919;-66
2022/12/28 13:30:03;;;;;;;;;41.75;33.00;;;;;17.77;59.00;101983.88;146601;590;47012;-66
2022/12/28 13:32:59;;;;;;;;;43.25;33.50;;;;;17.52;57.75;101988.03;146602;584;46919;-67
2022/12/28 13:36:39;;;;;;;;;46.00;36.25;;;;;14.74;59.20;101553.28;146605;600;46029;-66
2022/12/28 13:39:43;;;;;;;;;42.50;36.75;;;;;17.00;59.79;101984.84;146605;659;46013;-66
2022/12/28 13:43:06;;;;;;;;;40.25;34.25;;;;;16.94;61.34;101989.81;146603;590;46020;-66
2022/12/28 13:46:06;;;;;;;;;46.25;36.75;;;;;17.16;59.47;101991.66;146603;580;46016;-66
2022/12/28 13:49:20;;;;;;;;;46.75;37.25;;;;;17.50;59.34;101997.56;146603;622;47011;-67
2022/12/28 13:52:30;;;;;;;;;51.75;41.00;;;;;17.83;59.22;102001.59;146601;570;46016;-66
2022/12/28 13:55:30;;;;;;;;;50.50;40.25;;;;;18.13;58.53;102001.97;146603;629;47010;-67
2022/12/28 13:59:10;;;;;;;;;42.50;35.25;;;;;15.19;58.71;101470.00;146599;570;46918;-66
2022/12/28 14:02:09;;;;;;;;;44.75;34.75;;;;;18.08;56.76;102001.78;146604;573;46021;-66
2022/12/28 14:05:12;;;;;;;;;43.25;36.00;;;;;17.95;57.04;102003.00;146603;707;47012;-68
2022/12/28 14:08:09;;;;;;;;;43.75;33.75;;;;;17.81;56.55;101996.28;146605;593;46010;-67
2022/12/28 14:11:16;;;;;;;;;;;;;;;;;;;;;
2022/12/28 14:14:23;;;;;;;;;51.50;39.00;;;;;17.96;57.89;102001.28;146605;600;46030;-68
2022/12/28 14:17:23;;;;;;;;;47.75;36.50;;;;;18.09;58.13;102000.06;146603;589;46013;-67
2022/12/28 14:20:22;;;;;;;;;48.25;37.00;;;;;18.19;57.04;102002.22;146602;605;46029;-68
2022/12/28 14:23:52;;;;;;;;;40.25;34.00;;;;;15.73;58.83;101568.22;146599;574;46016;-66
2022/12/28 14:27:08;;;;;;;;;41.00;33.00;;;;;15.69;58.04;101578.53;146608;651;46010;-67
2022/12/28 14:30:18;;;;;;;;;45.75;34.25;;;;;18.03;57.27;102002.41;146609;603;47012;-67
2022/12/28 14:33:26;;;;;;;;;45.75;34.75;;;;;17.93;57.81;102009.03;146609;618;47011;-66
2022/12/28 14:36:26;;;;;;;;;45.75;36.00;;;;;17.81;57.19;102006.78;146607;596;46016;-67
2022/12/28 14:39:35;;;;;;;;;44.25;37.00;;;;;17.61;58.00;102002.38;146611;674;47011;-67
2022/12/28 14:42:29;;;;;;;;;51.50;39.50;;;;;17.35;57.25;102007.38;146608;627;46012;-67
2022/12/28 14:45:42;;;;;;;;;46.75;37.25;;;;;17.13;58.64;101996.78;146611;599;46020;-66
2022/12/28 14:48:41;;;;;;;;;45.25;35.75;;;;;16.94;59.58;102009.03;146607;625;46919;-68
2022/12/28 14:51:38;;;;;;;;;52.25;39.00;;;;;16.75;59.44;102006.37;146608;564;46020;-67
2022/12/28 14:54:46;;;;;;;;;55.50;43.00;;;;;16.56;59.66;102002.00;146610;565;46012;-66
2022/12/28 14:57:48;;;;;;;;;54.25;43.50;;;;;16.31;60.30;102011.28;146612;575;47010;-68
2022/12/28 15:00:50;;;;;;;;;;;;;;;;;;;;;